Time;durP1;ratioP1;P1;durP2;ratioP2;P2;SDS_P1;SDS_P2;PMS_P1;PMS_P2;Temp;Humidity;BMP_temperature;BMP_pressure;BME280_temperature;BME280_humidity;BME280_pressure;Samples;Min_cycle;Max_cycle;Signal;HPM_P1;HPM_P2
2023/03/12 00:02:14;;;;;;;21.35;13.00;;;;;;;;;;774410;181;919449;-72
2023/03/12 00:04:40;;;;;;;15.83;12.30;;;;;;;;;;770431;180;818109;-71
2023/03/12 00:07:07;;;;;;;17.10;12.20;;;;;;;;;;772659;181;918512;-72
2023/03/12 00:09:34;;;;;;;16.17;11.30;;;;;;;;;;777131;181;815600;-66
2023/03/12 00:12:00;;;;;;;15.30;11.70;;;;;;;;;;766943;180;918661;-67
2023/03/12 00:14:25;;;;;;;17.00;13.10;;;;;;;;;;770768;180;919028;-67
2023/03/12 00:16:51;;;;;;;17.63;11.27;;;;;;;;;;771772;181;816394;-67
2023/03/12 00:19:17;;;;;;;19.97;12.60;;;;;;;;;;777421;180;919510;-72
2023/03/12 00:21:43;;;;;;;20.90;10.73;;;;;;;;;;773189;180;915296;-72
2023/03/12 00:24:09;;;;;;;15.20;11.60;;;;;;;;;;772194;181;813620;-75
2023/03/12 00:26:35;;;;;;;14.60;11.90;;;;;;;;;;776993;180;1019027;-66
2023/03/12 00:29:00;;;;;;;15.80;11.10;;;;;;;;;;770272;180;916988;-72
2023/03/12 00:31:26;;;;;;;18.77;11.37;;;;;;;;;;771706;180;911562;-66
2023/03/12 00:33:52;;;;;;;16.07;11.73;;;;;;;;;;775350;181;906351;-72
2023/03/12 00:36:18;;;;;;;18.70;12.80;;;;;;;;;;770009;181;919037;-66
2023/03/12 00:38:44;;;;;;;18.90;12.83;;;;;;;;;;767002;181;918644;-71
2023/03/12 00:41:10;;;;;;;20.47;12.93;;;;;;;;;;773343;180;915706;-71
2023/03/12 00:43:36;;;;;;;18.70;13.30;;;;;;;;;;775749;180;856966;-65
2023/03/12 00:46:01;;;;;;;20.07;12.93;;;;;;;;;;768101;179;919066;-71
2023/03/12 00:48:27;;;;;;;20.17;13.40;;;;;;;;;;771486;181;911322;-67
2023/03/12 00:50:53;;;;;;;21.33;13.87;;;;;;;;;;772598;181;931560;-67
2023/03/12 00:53:19;;;;;;;23.20;13.10;;;;;;;;;;775575;179;711914;-73
2023/03/12 00:55:45;;;;;;;20.77;12.30;;;;;;;;;;771698;180;918195;-72
2023/03/12 00:58:11;;;;;;;23.13;14.90;;;;;;;;;;781266;179;630158;-72
2023/03/12 01:00:36;;;;;;;17.60;12.93;;;;;;;;;;773051;181;623520;-66
2023/03/12 01:03:02;;;;;;;19.47;12.70;;;;;;;;;;770385;179;915667;-72
2023/03/12 01:05:28;;;;;;;20.50;13.10;;;;;;;;;;770684;181;919502;-67
2023/03/12 01:07:54;;;;;;;17.20;13.00;;;;;;;;;;774175;181;923401;-65
2023/03/12 01:10:20;;;;;;;21.03;13.60;;;;;;;;;;769511;181;920687;-68
2023/03/12 01:12:46;;;;;;;20.65;14.05;;;;;;;;;;771361;180;914911;-67
2023/03/12 01:15:12;;;;;;;25.00;14.17;;;;;;;;;;781009;180;624735;-71
2023/03/12 01:17:37;;;;;;;26.60;16.67;;;;;;;;;;766709;179;908646;-71
2023/03/12 01:20:04;;;;;;;23.27;15.10;;;;;;;;;;771795;181;910078;-71
2023/03/12 01:22:29;;;;;;;22.70;15.50;;;;;;;;;;779461;181;815537;-66
2023/03/12 01:24:55;;;;;;;21.70;14.80;;;;;;;;;;771350;181;918731;-71
2023/03/12 01:27:21;;;;;;;21.77;15.00;;;;;;;;;;770026;180;918835;-71
2023/03/12 01:29:47;;;;;;;20.13;13.70;;;;;;;;;;768427;182;814974;-67
2023/03/12 01:32:13;;;;;;;21.03;14.67;;;;;;;;;;766965;183;916976;-66
2023/03/12 01:34:38;;;;;;;23.70;13.73;;;;;;;;;;762933;180;918121;-66
2023/03/12 01:37:04;;;;;;;22.40;14.70;;;;;;;;;;763425;182;915660;-67
2023/03/12 01:39:30;;;;;;;22.97;14.83;;;;;;;;;;776290;181;908970;-69
2023/03/12 01:41:56;;;;;;;22.83;14.47;;;;;;;;;;771318;180;855198;-71
2023/03/12 01:44:22;;;;;;;23.60;14.23;;;;;;;;;;768577;180;1021610;-66
2023/03/12 01:46:48;;;;;;;21.00;13.17;;;;;;;;;;778247;181;918526;-72
2023/03/12 01:49:15;;;;;;;25.87;15.80;;;;;;;;;;767139;183;927226;-66
2023/03/12 01:51:42;;;;;;;24.13;14.80;;;;;;;;;;772276;181;919126;-72
2023/03/12 01:54:09;;;;;;;24.90;15.40;;;;;;;;;;772213;181;918985;-71
2023/03/12 01:56:35;;;;;;;27.13;15.17;;;;;;;;;;779605;179;819372;-67
2023/03/12 01:59:00;;;;;;;25.47;14.57;;;;;;;;;;771737;180;919423;-71
2023/03/12 02:01:26;;;;;;;20.50;13.53;;;;;;;;;;763303;182;916004;-67
2023/03/12 02:03:52;;;;;;;24.00;14.17;;;;;;;;;;768735;183;875464;-66
2023/03/12 02:06:18;;;;;;;20.75;13.55;;;;;;;;;;763330;184;817221;-66
2023/03/12 02:08:44;;;;;;;25.03;13.60;;;;;;;;;;767392;182;915310;-71
2023/03/12 02:11:10;;;;;;;19.50;11.90;;;;;;;;;;775081;181;918513;-71
2023/03/12 02:13:35;;;;;;;19.90;13.90;;;;;;;;;;772471;181;919257;-72
2023/03/12 02:16:01;;;;;;;19.17;13.77;;;;;;;;;;766557;181;941832;-68
2023/03/12 02:18:27;;;;;;;23.55;15.05;;;;;;;;;;776545;180;918058;-66
2023/03/12 02:20:58;;;;;;;24.50;14.00;;;;;;;;;;766560;183;817356;-64
2023/03/12 02:23:31;;;;;;;23.50;14.40;;;;;;;;;;772685;181;817281;-66
2023/03/12 02:25:56;;;;;;;25.20;15.67;;;;;;;;;;764554;182;916416;-66
2023/03/12 02:28:22;;;;;;;25.20;14.10;;;;;;;;;;764805;181;913099;-67
2023/03/12 02:30:48;;;;;;;21.43;14.50;;;;;;;;;;767805;182;919230;-71
2023/03/12 02:33:14;;;;;;;17.30;12.70;;;;;;;;;;769301;181;920397;-67
2023/03/12 02:35:40;;;;;;;19.37;13.43;;;;;;;;;;771135;181;918922;-65
2023/03/12 02:38:11;;;;;;;18.80;12.50;;;;;;;;;;776667;181;918787;-67
2023/03/12 02:40:37;;;;;;;23.60;12.77;;;;;;;;;;772325;181;918753;-71
2023/03/12 02:43:03;;;;;;;20.50;12.63;;;;;;;;;;773064;181;919128;-72
2023/03/12 02:45:30;;;;;;;20.08;12.37;;;;;;;;;;774721;181;919609;-67
2023/03/12 02:47:56;;;;;;;18.60;12.80;;;;;;;;;;762205;184;919424;-67
2023/03/12 02:50:21;;;;;;;19.00;13.33;;;;;;;;;;771205;181;918809;-65
2023/03/12 02:52:47;;;;;;;21.98;13.98;;;;;;;;;;768951;179;920241;-66
2023/03/12 02:55:13;;;;;;;23.00;13.57;;;;;;;;;;772518;182;918251;-72
2023/03/12 02:57:39;;;;;;;20.10;11.47;;;;;;;;;;766860;182;920877;-71
2023/03/12 03:00:05;;;;;;;20.10;12.37;;;;;;;;;;764697;182;908235;-71
2023/03/12 03:02:31;;;;;;;19.63;13.50;;;;;;;;;;769113;183;924125;-73
2023/03/12 03:04:57;;;;;;;24.47;14.07;;;;;;;;;;769936;180;917214;-74
2023/03/12 03:07:23;;;;;;;21.67;13.18;;;;;;;;;;767380;179;915791;-66
2023/03/12 03:09:49;;;;;;;21.47;13.33;;;;;;;;;;774071;182;714000;-72
2023/03/12 03:12:14;;;;;;;20.70;13.00;;;;;;;;;;771366;181;971557;-72
2023/03/12 03:14:40;;;;;;;19.77;13.55;;;;;;;;;;767779;181;902403;-73
2023/03/12 03:17:06;;;;;;;19.27;13.77;;;;;;;;;;770519;181;918630;-66
2023/03/12 03:19:32;;;;;;;19.10;11.73;;;;;;;;;;781233;179;928247;-72
2023/03/12 03:21:58;;;;;;;24.87;15.13;;;;;;;;;;774564;179;707466;-65
2023/03/12 03:24:24;;;;;;;20.00;13.67;;;;;;;;;;769845;180;914475;-66
2023/03/12 03:26:50;;;;;;;21.80;13.90;;;;;;;;;;768568;183;845894;-66
2023/03/12 03:29:15;;;;;;;21.20;13.60;;;;;;;;;;763189;183;905420;-73
2023/03/12 03:31:41;;;;;;;25.03;14.73;;;;;;;;;;761984;180;918112;-72
2023/03/12 03:34:07;;;;;;;21.30;13.32;;;;;;;;;;768639;180;914073;-65
2023/03/12 03:36:33;;;;;;;26.40;14.13;;;;;;;;;;762280;183;1020727;-72
2023/03/12 03:38:59;;;;;;;22.03;14.00;;;;;;;;;;765957;181;918394;-67
2023/03/12 03:41:25;;;;;;;21.03;14.40;;;;;;;;;;769127;180;913022;-72
2023/03/12 03:43:50;;;;;;;20.33;14.23;;;;;;;;;;776595;179;913001;-74
2023/03/12 03:46:16;;;;;;;19.27;13.05;;;;;;;;;;766949;181;919534;-66
2023/03/12 03:48:42;;;;;;;23.60;15.00;;;;;;;;;;767453;181;919985;-74
2023/03/12 03:51:08;;;;;;;24.40;15.27;;;;;;;;;;778693;181;917505;-66
2023/03/12 03:53:34;;;;;;;26.50;16.40;;;;;;;;;;771267;181;822838;-72
2023/03/12 03:56:04;;;;;;;21.67;12.77;;;;;;;;;;767546;182;919256;-72
2023/03/12 03:58:30;;;;;;;19.15;15.00;;;;;;;;;;770466;182;920294;-66
2023/03/12 04:00:56;;;;;;;28.37;13.70;;;;;;;;;;757471;185;918660;-66
2023/03/12 04:03:22;;;;;;;26.33;14.87;;;;;;;;;;768173;180;919434;-73
2023/03/12 04:05:48;;;;;;;21.50;12.50;;;;;;;;;;772577;181;915654;-65
2023/03/12 04:08:14;;;;;;;20.83;13.47;;;;;;;;;;776035;181;915257;-72
2023/03/12 04:10:40;;;;;;;24.83;13.80;;;;;;;;;;765818;181;919190;-73
2023/03/12 04:13:05;;;;;;;22.93;15.33;;;;;;;;;;766946;182;849045;-65
2023/03/12 04:15:31;;;;;;;24.97;15.60;;;;;;;;;;774079;182;919258;-72
2023/03/12 04:17:57;;;;;;;21.77;14.03;;;;;;;;;;774591;180;913169;-73
2023/03/12 04:20:23;;;;;;;21.50;14.10;;;;;;;;;;767261;181;1021245;-66
2023/03/12 04:22:49;;;;;;;25.90;15.73;;;;;;;;;;775521;179;918647;-65
2023/03/12 04:25:15;;;;;;;23.10;14.53;;;;;;;;;;770703;180;913453;-67
2023/03/12 04:27:40;;;;;;;21.60;14.53;;;;;;;;;;774537;179;916818;-72
2023/03/12 04:30:07;;;;;;;23.00;14.83;;;;;;;;;;773844;181;919502;-72
2023/03/12 04:32:33;;;;;;;28.17;15.32;;;;;;;;;;780330;181;918757;-74
2023/03/12 04:34:59;;;;;;;26.00;15.90;;;;;;;;;;773454;181;919296;-66
2023/03/12 04:37:24;;;;;;;26.73;15.60;;;;;;;;;;772562;180;919073;-65
2023/03/12 04:39:50;;;;;;;23.12;13.62;;;;;;;;;;777326;181;816076;-65
2023/03/12 04:42:16;;;;;;;25.53;14.60;;;;;;;;;;767604;181;916169;-71
2023/03/12 04:44:42;;;;;;;18.73;14.03;;;;;;;;;;766191;181;1022193;-65
2023/03/12 04:47:08;;;;;;;22.03;14.40;;;;;;;;;;776865;181;921733;-73
2023/03/12 04:49:34;;;;;;;19.33;13.60;;;;;;;;;;768556;182;919850;-65
2023/03/12 04:52:00;;;;;;;18.87;13.40;;;;;;;;;;765369;182;819893;-66
2023/03/12 04:54:25;;;;;;;29.33;15.50;;;;;;;;;;770726;181;918522;-65
2023/03/12 04:56:51;;;;;;;23.63;15.07;;;;;;;;;;775651;180;911298;-64
2023/03/12 04:59:17;;;;;;;22.90;14.73;;;;;;;;;;770335;180;792428;-72
2023/03/12 05:01:43;;;;;;;27.20;15.73;;;;;;;;;;768074;182;920494;-72
2023/03/12 05:04:09;;;;;;;28.03;16.27;;;;;;;;;;772890;182;816747;-65
2023/03/12 05:06:35;;;;;;;24.03;15.93;;;;;;;;;;774806;181;815722;-64
2023/03/12 05:09:00;;;;;;;21.97;14.47;;;;;;;;;;772233;181;918789;-72
2023/03/12 05:11:26;;;;;;;21.77;14.33;;;;;;;;;;772405;182;916321;-72
2023/03/12 05:13:52;;;;;;;24.92;16.55;;;;;;;;;;771063;180;918826;-64
2023/03/12 05:16:18;;;;;;;26.67;15.13;;;;;;;;;;769154;181;987522;-65
2023/03/12 05:18:44;;;;;;;29.53;17.03;;;;;;;;;;771371;181;1020805;-65
2023/03/12 05:21:10;;;;;;;27.40;16.90;;;;;;;;;;759274;182;918551;-72
2023/03/12 05:23:38;;;;;;;26.70;17.50;;;;;;;;;;751262;183;921214;-65
2023/03/12 05:26:02;;;;;;;33.03;16.90;;;;;;;;;;766919;181;819408;-72
2023/03/12 05:28:28;;;;;;;28.17;19.03;;;;;;;;;;776702;179;771196;-65
2023/03/12 05:30:54;;;;;;;31.87;19.80;;;;;;;;;;770576;181;920728;-72
2023/03/12 05:33:20;;;;;;;28.67;18.20;;;;;;;;;;771538;181;918918;-66
2023/03/12 05:35:46;;;;;;;23.30;17.20;;;;;;;;;;773369;182;915267;-73
2023/03/12 05:38:12;;;;;;;24.70;17.00;;;;;;;;;;767691;182;918417;-67
2023/03/12 05:40:38;;;;;;;25.83;17.00;;;;;;;;;;769360;179;919318;-74
2023/03/12 05:43:04;;;;;;;29.40;16.98;;;;;;;;;;774105;180;917962;-72
2023/03/12 05:45:30;;;;;;;26.87;16.60;;;;;;;;;;771505;181;917879;-73
2023/03/12 05:47:57;;;;;;;24.80;15.97;;;;;;;;;;772527;180;1009992;-66
2023/03/12 05:50:22;;;;;;;22.45;15.45;;;;;;;;;;767658;181;1012859;-73
2023/03/12 05:52:48;;;;;;;24.53;17.23;;;;;;;;;;778398;179;904827;-75
2023/03/12 05:55:13;;;;;;;30.17;15.33;;;;;;;;;;770416;179;919132;-74
2023/03/12 05:57:39;;;;;;;24.47;15.27;;;;;;;;;;770349;181;918981;-74
2023/03/12 06:00:06;;;;;;;26.23;16.10;;;;;;;;;;774859;181;917258;-75
2023/03/12 06:02:31;;;;;;;25.37;17.20;;;;;;;;;;774064;180;916356;-65
2023/03/12 06:04:57;;;;;;;27.87;16.87;;;;;;;;;;770000;181;918492;-75
2023/03/12 06:07:23;;;;;;;26.20;15.80;;;;;;;;;;777635;180;917391;-75
2023/03/12 06:09:49;;;;;;;23.37;15.57;;;;;;;;;;771569;181;819095;-65
2023/03/12 06:12:15;;;;;;;25.67;15.60;;;;;;;;;;772786;180;920077;-66
2023/03/12 06:14:41;;;;;;;28.13;14.80;;;;;;;;;;773470;179;821644;-65
2023/03/12 06:17:07;;;;;;;30.50;16.57;;;;;;;;;;772433;181;917618;-79
2023/03/12 06:19:32;;;;;;;26.07;16.10;;;;;;;;;;770178;181;918836;-78
2023/03/12 06:21:58;;;;;;;26.50;17.27;;;;;;;;;;767031;181;1101828;-74
2023/03/12 06:24:24;;;;;;;22.80;14.33;;;;;;;;;;778882;180;826844;-71
2023/03/12 06:26:50;;;;;;;21.07;14.17;;;;;;;;;;772018;181;916662;-61
2023/03/12 06:29:16;;;;;;;22.83;13.57;;;;;;;;;;770591;181;920597;-73
2023/03/12 06:31:42;;;;;;;22.92;14.87;;;;;;;;;;772998;181;974281;-61
2023/03/12 06:34:09;;;;;;;20.50;13.50;;;;;;;;;;769559;180;885439;-69
2023/03/12 06:36:33;;;;;;;24.23;13.77;;;;;;;;;;770640;181;819242;-62
2023/03/12 06:38:59;;;;;;;20.47;13.27;;;;;;;;;;771393;181;910395;-63
2023/03/12 06:41:25;;;;;;;22.83;13.97;;;;;;;;;;772977;180;917910;-62
2023/03/12 06:43:51;;;;;;;19.50;12.63;;;;;;;;;;771439;181;917573;-63
2023/03/12 06:46:17;;;;;;;17.93;12.60;;;;;;;;;;769744;181;919009;-70
2023/03/12 06:48:45;;;;;;;21.57;12.63;;;;;;;;;;771903;181;911308;-65
2023/03/12 06:51:09;;;;;;;20.07;11.00;;;;;;;;;;770672;180;917808;-70
2023/03/12 06:53:34;;;;;;;18.15;12.02;;;;;;;;;;772387;180;919944;-64
2023/03/12 06:56:00;;;;;;;18.30;11.93;;;;;;;;;;774880;181;918123;-72
2023/03/12 06:58:26;;;;;;;18.43;10.00;;;;;;;;;;770954;181;919836;-63
2023/03/12 07:00:52;;;;;;;16.40;11.43;;;;;;;;;;770754;181;918150;-72
2023/03/12 07:03:18;;;;;;;16.67;11.40;;;;;;;;;;769930;181;936060;-71
2023/03/12 07:05:44;;;;;;;16.40;11.30;;;;;;;;;;766394;183;1018931;-63
2023/03/12 07:08:10;;;;;;;16.50;10.53;;;;;;;;;;770423;180;817339;-72
2023/03/12 07:10:36;;;;;;;18.67;11.73;;;;;;;;;;772391;181;816585;-73
2023/03/12 07:13:02;;;;;;;27.97;11.10;;;;;;;;;;776636;181;815716;-72
2023/03/12 07:15:28;;;;;;;18.17;11.23;;;;;;;;;;769543;181;918853;-65
2023/03/12 07:17:54;;;;;;;16.23;10.93;;;;;;;;;;772358;180;827431;-65
2023/03/12 07:20:20;;;;;;;16.87;10.53;;;;;;;;;;775849;180;919496;-66
2023/03/12 07:22:45;;;;;;;24.13;12.17;;;;;;;;;;771539;181;893849;-66
2023/03/12 07:25:11;;;;;;;15.80;11.63;;;;;;;;;;769400;181;911762;-66
2023/03/12 07:27:37;;;;;;;14.55;10.70;;;;;;;;;;778863;180;919098;-73
2023/03/12 07:30:03;;;;;;;17.23;9.97;;;;;;;;;;763180;180;913762;-64
2023/03/12 07:32:29;;;;;;;16.30;10.87;;;;;;;;;;771006;181;818057;-70
2023/03/12 07:34:55;;;;;;;13.70;9.80;;;;;;;;;;771994;180;915103;-65
2023/03/12 07:37:21;;;;;;;15.67;10.83;;;;;;;;;;774713;181;916686;-70
2023/03/12 07:39:51;;;;;;;15.73;9.90;;;;;;;;;;767174;181;917525;-66
2023/03/12 07:42:12;;;;;;;17.77;11.43;;;;;;;;;;771102;181;835155;-66
2023/03/12 07:44:38;;;;;;;15.83;10.30;;;;;;;;;;775848;181;915106;-65
2023/03/12 07:47:04;;;;;;;18.07;10.23;;;;;;;;;;775224;180;618633;-72
2023/03/12 07:49:30;;;;;;;16.67;11.00;;;;;;;;;;771340;181;740476;-72
2023/03/12 07:51:58;;;;;;;17.03;10.60;;;;;;;;;;778845;180;616104;-73
2023/03/12 07:54:27;;;;;;;15.13;9.73;;;;;;;;;;771806;181;618294;-73
2023/03/12 07:56:49;;;;;;;16.47;10.27;;;;;;;;;;775773;180;621253;-68
2023/03/12 07:59:15;;;;;;;18.50;10.33;;;;;;;;;;770617;181;912536;-76
2023/03/12 08:01:40;;;;;;;13.60;9.87;;;;;;;;;;776162;180;816862;-69
2023/03/12 08:04:06;;;;;;;15.73;10.87;;;;;;;;;;775418;180;639535;-69
2023/03/12 08:06:32;;;;;;;17.40;10.00;;;;;;;;;;777153;180;676749;-69
2023/03/12 08:08:58;;;;;;;19.07;11.33;;;;;;;;;;778318;180;774140;-76
2023/03/12 08:11:24;;;;;;;16.90;10.77;;;;;;;;;;772548;181;817979;-71
2023/03/12 08:13:50;;;;;;;14.25;9.48;;;;;;;;;;773339;181;836742;-78
2023/03/12 08:16:17;;;;;;;17.37;10.20;;;;;;;;;;775824;181;809491;-71
2023/03/12 08:18:41;;;;;;;13.37;9.83;;;;;;;;;;774328;180;910003;-70
2023/03/12 08:21:07;;;;;;;16.03;11.43;;;;;;;;;;772308;181;817352;-80
2023/03/12 08:23:33;;;;;;;12.93;9.13;;;;;;;;;;771018;181;916259;-78
2023/03/12 08:25:59;;;;;;;12.50;9.60;;;;;;;;;;776589;180;893643;-78
2023/03/12 08:28:25;;;;;;;14.40;9.50;;;;;;;;;;772961;177;909428;-69
2023/03/12 08:30:51;;;;;;;17.50;10.77;;;;;;;;;;759820;180;879445;-78
2023/03/12 08:33:16;;;;;;;16.10;9.30;;;;;;;;;;776859;181;831280;-69
2023/03/12 08:35:42;;;;;;;14.80;9.33;;;;;;;;;;769690;180;917611;-68
2023/03/12 08:38:08;;;;;;;17.50;11.93;;;;;;;;;;769308;181;920149;-67
2023/03/12 08:40:34;;;;;;;12.90;8.87;;;;;;;;;;773385;181;919206;-78
2023/03/12 08:43:00;;;;;;;17.98;9.48;;;;;;;;;;771156;181;918308;-67
2023/03/12 08:45:26;;;;;;;16.50;10.70;;;;;;;;;;770120;181;913705;-68
2023/03/12 08:47:51;;;;;;;14.50;9.63;;;;;;;;;;771150;181;937630;-67
2023/03/12 08:50:19;;;;;;;13.87;10.07;;;;;;;;;;763437;182;921159;-75
2023/03/12 08:52:43;;;;;;;12.60;8.20;;;;;;;;;;767232;181;921238;-65
2023/03/12 08:55:09;;;;;;;14.97;9.33;;;;;;;;;;772633;180;787741;-66
2023/03/12 08:57:35;;;;;;;13.87;10.27;;;;;;;;;;776838;181;815890;-77
2023/03/12 09:00:03;;;;;;;12.10;8.40;;;;;;;;;;769437;181;918891;-76
2023/03/12 09:02:27;;;;;;;16.05;9.68;;;;;;;;;;770316;180;919079;-78
2023/03/12 09:04:53;;;;;;;15.50;9.70;;;;;;;;;;775520;181;918301;-78
2023/03/12 09:07:19;;;;;;;14.40;9.90;;;;;;;;;;769593;181;918514;-78
2023/03/12 09:09:44;;;;;;;11.07;8.80;;;;;;;;;;769795;179;905785;-77
2023/03/12 09:12:10;;;;;;;11.90;8.30;;;;;;;;;;775486;181;918134;-77
2023/03/12 09:14:36;;;;;;;14.70;9.40;;;;;;;;;;773917;178;915169;-76
2023/03/12 09:17:02;;;;;;;12.03;8.40;;;;;;;;;;769719;180;1022330;-66
2023/03/12 09:19:28;;;;;;;12.23;9.30;;;;;;;;;;771504;180;918683;-66
2023/03/12 09:21:53;;;;;;;13.63;8.77;;;;;;;;;;778953;181;807869;-69
2023/03/12 09:24:19;;;;;;;14.93;9.20;;;;;;;;;;770934;178;915007;-66
2023/03/12 09:26:45;;;;;;;12.47;7.60;;;;;;;;;;768212;180;912948;-74
2023/03/12 09:29:11;;;;;;;15.33;9.93;;;;;;;;;;775981;180;898150;-66
2023/03/12 09:31:37;;;;;;;12.43;9.20;;;;;;;;;;772305;180;919450;-74
2023/03/12 09:34:03;;;;;;;15.37;9.30;;;;;;;;;;769140;181;918319;-72
2023/03/12 09:36:28;;;;;;;13.83;8.63;;;;;;;;;;775921;181;820283;-65
2023/03/12 09:38:54;;;;;;;14.77;9.40;;;;;;;;;;770783;180;930325;-65
2023/03/12 09:41:21;;;;;;;14.90;10.10;;;;;;;;;;770693;181;911772;-65
2023/03/12 09:43:47;;;;;;;15.17;8.90;;;;;;;;;;768708;181;920241;-71
2023/03/12 09:46:12;;;;;;;13.43;7.90;;;;;;;;;;759448;183;918677;-65
2023/03/12 09:48:38;;;;;;;13.40;9.70;;;;;;;;;;767404;180;919009;-66
2023/03/12 09:51:04;;;;;;;13.90;8.07;;;;;;;;;;769523;181;918810;-73
2023/03/12 09:53:34;;;;;;;14.18;9.75;;;;;;;;;;773811;181;919384;-66
2023/03/12 09:56:00;;;;;;;13.50;8.10;;;;;;;;;;772776;180;816434;-74
2023/03/12 09:58:26;;;;;;;11.73;8.50;;;;;;;;;;767463;181;918660;-73
2023/03/12 10:00:53;;;;;;;12.93;8.85;;;;;;;;;;772190;181;926135;-73
2023/03/12 10:03:19;;;;;;;13.40;8.20;;;;;;;;;;766441;181;715736;-66
2023/03/12 10:05:45;;;;;;;13.53;7.73;;;;;;;;;;768318;181;917851;-67
2023/03/12 10:08:13;;;;;;;11.80;9.13;;;;;;;;;;767773;181;919924;-67
2023/03/12 10:10:39;;;;;;;12.83;8.10;;;;;;;;;;776451;181;715682;-66
2023/03/12 10:13:06;;;;;;;14.68;9.55;;;;;;;;;;773118;181;819356;-73
2023/03/12 10:15:34;;;;;;;11.50;9.00;;;;;;;;;;770911;180;921045;-66
2023/03/12 10:18:07;;;;;;;13.65;7.50;;;;;;;;;;771164;180;920861;-67
2023/03/12 10:20:38;;;;;;;10.30;7.40;;;;;;;;;;759922;183;919370;-74
2023/03/12 10:23:07;;;;;;;12.88;7.00;;;;;;;;;;770697;180;943414;-74
2023/03/12 10:25:52;;;;;;;11.83;8.60;;;;;;;;;;774259;179;815406;-73
2023/03/12 10:28:18;;;;;;;16.30;7.73;;;;;;;;;;770475;180;820348;-66
2023/03/12 10:30:45;;;;;;;12.87;8.60;;;;;;;;;;773163;180;918774;-73
2023/03/12 10:33:11;;;;;;;10.63;8.10;;;;;;;;;;774611;179;917524;-74
2023/03/12 10:35:36;;;;;;;15.10;8.53;;;;;;;;;;769957;180;915279;-74
2023/03/12 10:38:02;;;;;;;11.30;8.27;;;;;;;;;;772012;180;819147;-75
2023/03/12 10:40:33;;;;;;;10.40;6.80;;;;;;;;;;775501;180;833558;-67
2023/03/12 10:42:57;;;;;;;10.63;6.80;;;;;;;;;;772764;181;906483;-67
2023/03/12 10:45:38;;;;;;;17.33;6.77;;;;;;;;;;772049;181;816128;-76
2023/03/12 10:48:06;;;;;;;11.30;8.30;;;;;;;;;;769825;181;891953;-66
2023/03/12 10:50:30;;;;;;;9.20;6.43;;;;;;;;;;770515;180;941792;-74
2023/03/12 10:53:12;;;;;;;9.43;6.43;;;;;;;;;;773615;180;916904;-65
2023/03/12 10:55:38;;;;;;;10.10;7.13;;;;;;;;;;765835;182;922626;-74
2023/03/12 10:58:03;;;;;;;12.93;6.67;;;;;;;;;;767023;179;919900;-67
2023/03/12 11:00:30;;;;;;;10.13;7.80;;;;;;;;;;765583;181;918278;-75
2023/03/12 11:02:57;;;;;;;9.20;6.90;;;;;;;;;;772235;180;1004769;-75
2023/03/12 11:05:23;;;;;;;9.53;6.00;;;;;;;;;;772555;180;919174;-66
2023/03/12 11:07:49;;;;;;;11.07;7.63;;;;;;;;;;768305;180;926866;-67
2023/03/12 11:10:15;;;;;;;9.40;5.47;;;;;;;;;;772948;180;816104;-66
2023/03/12 11:12:41;;;;;;;8.37;5.70;;;;;;;;;;768657;179;817930;-74
2023/03/12 11:15:12;;;;;;;16.00;5.80;;;;;;;;;;773742;181;713712;-67
2023/03/12 11:17:38;;;;;;;11.20;6.47;;;;;;;;;;772130;181;835916;-67
2023/03/12 11:20:10;;;;;;;11.53;7.10;;;;;;;;;;776631;180;919071;-67
2023/03/12 11:22:36;;;;;;;9.00;6.60;;;;;;;;;;769932;181;917756;-67
2023/03/12 11:25:02;;;;;;;10.53;6.30;;;;;;;;;;768904;180;917293;-74
2023/03/12 11:27:29;;;;;;;8.77;6.37;;;;;;;;;;767152;181;918814;-67
2023/03/12 11:29:55;;;;;;;7.70;5.20;;;;;;;;;;771546;181;922754;-74
2023/03/12 11:32:22;;;;;;;8.07;5.10;;;;;;;;;;770267;180;814273;-67
2023/03/12 11:34:48;;;;;;;7.67;5.80;;;;;;;;;;772427;181;813771;-66
2023/03/12 11:37:19;;;;;;;8.80;4.77;;;;;;;;;;779557;179;630015;-75
2023/03/12 11:39:45;;;;;;;13.43;6.17;;;;;;;;;;768539;182;821366;-75
2023/03/12 11:42:14;;;;;;;9.57;5.67;;;;;;;;;;769711;181;919011;-74
2023/03/12 11:44:45;;;;;;;9.57;6.50;;;;;;;;;;772037;181;918593;-66
2023/03/12 11:47:16;;;;;;;9.43;5.62;;;;;;;;;;775091;180;913230;-74
2023/03/12 11:49:55;;;;;;;9.63;6.67;;;;;;;;;;769929;181;915339;-73
2023/03/12 11:52:22;;;;;;;10.02;6.87;;;;;;;;;;769702;179;1018895;-66
2023/03/12 11:54:50;;;;;;;10.03;7.63;;;;;;;;;;771459;181;815629;-74
2023/03/12 11:57:17;;;;;;;11.07;7.60;;;;;;;;;;771028;180;726280;-67
2023/03/12 11:59:43;;;;;;;11.20;7.10;;;;;;;;;;777807;181;815710;-74
2023/03/12 12:02:15;;;;;;;11.13;7.90;;;;;;;;;;770255;179;920812;-66
2023/03/12 12:04:58;;;;;;;10.90;6.53;;;;;;;;;;770705;181;914514;-73
2023/03/12 12:07:27;;;;;;;9.30;6.47;;;;;;;;;;771516;179;887640;-67
2023/03/12 12:10:08;;;;;;;9.27;5.67;;;;;;;;;;768222;181;919671;-73
2023/03/12 12:12:39;;;;;;;10.10;6.53;;;;;;;;;;760749;180;918081;-74
2023/03/12 12:15:08;;;;;;;9.97;5.77;;;;;;;;;;772062;180;811267;-68
2023/03/12 12:17:35;;;;;;;11.13;8.13;;;;;;;;;;768368;181;948426;-74
2023/03/12 12:20:08;;;;;;;11.07;7.93;;;;;;;;;;771147;180;917056;-73
2023/03/12 12:22:29;;;;;;;11.07;8.37;;;;;;;;;;772256;180;919877;-67
2023/03/12 12:25:14;;;;;;;10.90;7.57;;;;;;;;;;772788;181;917073;-74
2023/03/12 12:27:40;;;;;;;11.33;7.87;;;;;;;;;;766450;181;915395;-74
2023/03/12 12:30:22;;;;;;;10.63;6.30;;;;;;;;;;769386;180;1007497;-66
2023/03/12 12:33:02;;;;;;;13.17;7.57;;;;;;;;;;766456;180;926627;-67
2023/03/12 12:35:29;;;;;;;12.60;7.03;;;;;;;;;;772527;180;845359;-72
2023/03/12 12:38:11;;;;;;;12.63;7.33;;;;;;;;;;769971;181;923755;-73
2023/03/12 12:40:36;;;;;;;8.60;6.70;;;;;;;;;;769531;181;918175;-66
2023/03/12 12:43:23;;;;;;;10.50;7.47;;;;;;;;;;776525;180;846435;-66
2023/03/12 12:45:49;;;;;;;10.18;7.55;;;;;;;;;;766483;183;842399;-73
2023/03/12 12:48:16;;;;;;;10.70;6.93;;;;;;;;;;770103;180;824076;-66
2023/03/12 12:50:42;;;;;;;10.50;7.53;;;;;;;;;;772668;180;850365;-72
2023/03/12 12:53:13;;;;;;;11.40;7.50;;;;;;;;;;775955;180;756197;-65
2023/03/12 12:55:40;;;;;;;11.50;7.93;;;;;;;;;;776242;181;707593;-66
2023/03/12 12:58:07;;;;;;;10.80;8.20;;;;;;;;;;771444;180;919316;-72
2023/03/12 13:00:35;;;;;;;14.03;8.67;;;;;;;;;;772042;180;913197;-72
2023/03/12 13:03:01;;;;;;;12.97;7.90;;;;;;;;;;769377;180;919108;-71
2023/03/12 13:05:28;;;;;;;10.70;7.97;;;;;;;;;;775122;179;915550;-72
2023/03/12 13:07:54;;;;;;;12.07;7.20;;;;;;;;;;773931;181;778152;-71
2023/03/12 13:10:25;;;;;;;12.73;7.10;;;;;;;;;;771570;181;918049;-72
2023/03/12 13:12:51;;;;;;;13.10;7.10;;;;;;;;;;775581;181;939052;-65
2023/03/12 13:15:38;;;;;;;20.10;7.43;;;;;;;;;;772787;180;926988;-71
2023/03/12 13:18:04;;;;;;;12.23;6.90;;;;;;;;;;765170;182;812704;-72
2023/03/12 13:20:33;;;;;;;11.43;5.53;;;;;;;;;;768716;181;916168;-65
2023/03/12 13:22:59;;;;;;;10.83;6.20;;;;;;;;;;769806;180;817207;-66
2023/03/12 13:25:25;;;;;;;12.37;6.57;;;;;;;;;;772128;181;914986;-66
2023/03/12 13:27:56;;;;;;;8.87;5.97;;;;;;;;;;768349;179;916184;-71
2023/03/12 13:30:27;;;;;;;9.33;6.57;;;;;;;;;;766348;181;915504;-71
2023/03/12 13:33:08;;;;;;;10.17;5.73;;;;;;;;;;766438;180;914034;-70
2023/03/12 13:35:36;;;;;;;10.70;6.43;;;;;;;;;;771362;180;838913;-71
2023/03/12 13:38:02;;;;;;;9.77;4.93;;;;;;;;;;775397;180;817344;-71
2023/03/12 13:40:36;;;;;;;10.37;5.17;;;;;;;;;;769522;181;915432;-67
2023/03/12 13:43:18;;;;;;;8.63;5.17;;;;;;;;;;770170;181;923386;-71
2023/03/12 13:46:01;;;;;;;9.40;6.30;;;;;;;;;;768474;180;916869;-70
2023/03/12 13:48:27;;;;;;;10.70;6.00;;;;;;;;;;768549;181;920740;-71
2023/03/12 13:50:53;;;;;;;11.73;5.70;;;;;;;;;;770102;181;919909;-66
2023/03/12 13:53:19;;;;;;;8.70;5.10;;;;;;;;;;777845;180;914682;-71
2023/03/12 13:55:44;;;;;;;6.07;4.97;;;;;;;;;;772169;181;910765;-66
2023/03/12 13:58:15;;;;;;;7.97;4.10;;;;;;;;;;768616;180;917816;-70
2023/03/12 14:00:43;;;;;;;8.00;4.90;;;;;;;;;;770489;180;918227;-70
2023/03/12 14:03:08;;;;;;;7.23;3.90;;;;;;;;;;774657;177;895127;-66
2023/03/12 14:05:34;;;;;;;7.00;4.40;;;;;;;;;;770492;180;918927;-71
2023/03/12 14:08:19;;;;;;;5.70;3.87;;;;;;;;;;771123;180;918515;-66
2023/03/12 14:10:55;;;;;;;6.87;5.20;;;;;;;;;;754029;181;938495;-65